Time;durP1;ratioP1;P1;durP2;ratioP2;P2;SDS_P1;SDS_P2;PMS_P1;PMS_P2;Temp;Humidity;BMP_temperature;BMP_pressure;BME280_temperature;BME280_humidity;BME280_pressure;Samples;Min_cycle;Max_cycle;Signal;HPM_P1;HPM_P2
2023/09/10 00:00:05;;;;;;;1.70;1.70;;;25.40;99.90;;;25.73;77.38;101594.97;5047348;28;20163;-70
2023/09/10 00:02:34;;;;;;;3.70;3.15;;;25.30;99.90;;;25.75;77.49;101605.72;5037326;28;20417;-70
2023/09/10 00:05:02;;;;;;;2.55;2.45;;;25.30;99.90;;;25.67;77.56;101589.91;5044231;28;20053;-70
2023/09/10 00:07:32;;;;;;;2.00;1.90;;;25.30;99.90;;;25.56;78.13;101586.91;5045246;28;20045;-71
2023/09/10 00:10:00;;;;;;;3.85;3.35;;;25.20;99.90;;;25.51;78.22;101596.25;5036515;28;20076;-70
2023/09/10 00:12:29;;;;;;;2.85;2.65;;;25.10;99.90;;;25.62;78.08;101591.13;5047800;28;20053;-70
2023/09/10 00:14:57;;;;;;;2.60;2.40;;;25.20;99.90;;;25.59;78.19;101589.44;5041218;28;20045;-70
2023/09/10 00:17:25;;;;;;;1.60;1.60;;;25.20;99.90;;;25.70;77.83;101592.44;5039252;28;20124;-70
2023/09/10 00:19:54;;;;;;;1.95;1.88;;;25.30;99.90;;;25.80;77.65;101590.09;5048621;28;20389;-70
2023/09/10 00:22:22;;;;;;;2.30;2.20;;;25.40;99.90;;;25.59;77.97;101584.00;5037789;28;20056;-70
2023/09/10 00:24:52;;;;;;;1.52;1.52;;;25.20;99.90;;;25.74;77.74;101585.03;5043024;28;20064;-71
2023/09/10 00:27:20;;;;;;;1.57;1.57;;;25.40;99.90;;;25.76;77.77;101583.09;5046007;28;20044;-70
2023/09/10 00:29:49;;;;;;;1.90;1.80;;;25.40;99.90;;;25.84;77.37;101584.41;5036008;28;20338;-71
2023/09/10 00:32:17;;;;;;;1.67;1.67;;;25.40;99.90;;;25.97;77.01;101576.47;5046067;28;20307;-70
2023/09/10 00:34:45;;;;;;;1.42;1.42;;;25.50;99.90;;;26.00;76.75;101578.13;5041747;28;20045;-70
2023/09/10 00:37:16;;;;;;;2.20;2.10;;;25.60;99.90;;;26.07;76.47;101576.84;5037991;28;20041;-70
2023/09/10 00:39:45;;;;;;;1.40;1.40;;;25.70;99.90;;;26.18;76.11;101574.38;5050695;28;20486;-70
2023/09/10 00:42:15;;;;;;;1.45;1.45;;;25.80;99.90;;;26.14;75.86;101579.13;5042066;28;20056;-71
2023/09/10 00:44:43;;;;;;;1.58;1.58;;;25.80;99.90;;;26.18;75.76;101574.38;5045140;28;20422;-71
2023/09/10 00:47:11;;;;;;;1.60;1.60;;;25.80;99.90;;;26.22;75.35;101576.84;5050838;28;20072;-70
2023/09/10 00:49:40;;;;;;;2.05;1.95;;;25.90;99.90;;;26.09;75.54;101566.78;5053491;28;20657;-70
2023/09/10 00:52:09;;;;;;;1.50;1.50;;;25.80;99.90;;;26.05;75.78;101574.19;5048631;28;20049;-70
2023/09/10 00:54:38;;;;;;;3.15;2.72;;;25.70;99.90;;;26.08;75.63;101568.63;5046748;28;20418;-71
2023/09/10 00:57:07;;;;;;;1.60;1.60;;;25.70;99.90;;;26.10;75.54;101571.22;5040332;28;20111;-70
2023/09/10 00:59:37;;;;;;;1.85;1.83;;;25.80;99.90;;;25.80;76.51;101573.84;5052040;28;20103;-70
2023/09/10 01:02:05;;;;;;;3.88;3.67;;;25.50;99.90;;;25.78;76.57;101568.47;5042091;28;20049;-71
2023/09/10 01:04:34;;;;;;;1.55;1.55;;;25.40;99.90;;;25.81;76.39;101565.59;5044034;28;20045;-71
2023/09/10 01:07:03;;;;;;;2.00;1.90;;;25.50;99.90;;;25.63;76.80;101573.88;5051909;28;20145;-70
2023/09/10 01:09:31;;;;;;;1.73;1.70;;;25.30;99.90;;;25.80;76.55;101568.41;5034793;28;20057;-70
2023/09/10 01:12:11;;;;;;;1.50;1.50;;;25.30;99.90;;;25.62;76.87;101578.44;5043875;28;20072;-71
2023/09/10 01:14:50;;;;;;;1.65;1.65;;;25.30;99.90;;;25.73;76.94;101567.88;5055426;28;20041;-70
2023/09/10 01:17:26;;;;;;;1.88;1.77;;;25.30;99.90;;;25.57;77.21;101582.38;5039423;28;20053;-70
2023/09/10 01:20:19;;;;;;;1.70;1.70;;;25.20;99.90;;;25.35;78.26;101571.78;5051029;28;20143;-71
2023/09/10 01:23:03;;;;;;;2.10;2.00;;;25.00;99.90;;;25.34;78.39;101580.88;5051493;28;20102;-70
2023/09/10 01:25:34;;;;;;;2.15;2.05;;;25.00;99.90;;;25.42;77.80;101577.78;5041459;28;20041;-70
2023/09/10 01:28:04;;;;;;;3.42;2.75;;;25.00;99.90;;;25.28;78.38;101581.19;5044930;28;20041;-70
2023/09/10 01:30:33;;;;;;;2.88;2.78;;;24.90;99.90;;;25.38;78.46;101582.44;5050268;28;20049;-71
2023/09/10 01:33:12;;;;;;;2.10;2.00;;;25.00;99.90;;;25.36;78.47;101586.22;5053369;28;20965;-70
2023/09/10 01:35:48;;;;;;;2.08;1.98;;;25.00;99.90;;;25.32;78.29;101569.22;5046939;28;20053;-70
2023/09/10 01:38:24;;;;;;;2.25;2.15;;;24.90;99.90;;;25.13;78.81;101573.00;5064261;28;20082;-71
2023/09/10 01:41:00;;;;;;;1.70;1.70;;;24.80;99.90;;;24.98;79.40;101567.47;5052763;28;20044;-71
2023/09/10 01:43:30;;;;;;;1.95;1.90;;;24.70;99.90;;;25.02;79.43;101574.47;5042875;28;20057;-70
2023/09/10 01:45:59;;;;;;;3.53;3.35;;;24.70;99.90;;;25.11;79.51;101573.09;5050548;28;20064;-70
2023/09/10 01:48:30;;;;;;;1.60;1.60;;;24.70;99.90;;;25.00;79.35;101561.97;5051244;28;20045;-70
2023/09/10 01:50:58;;;;;;;2.00;1.90;;;24.70;99.90;;;25.23;78.82;101577.88;5037505;28;20061;-71
2023/09/10 01:53:27;;;;;;;2.20;2.10;;;24.80;99.90;;;25.25;78.48;101583.19;5049485;28;20505;-71
2023/09/10 01:55:56;;;;;;;1.88;1.85;;;24.90;99.90;;;25.24;78.67;101579.59;5047008;28;20047;-71
2023/09/10 01:58:25;;;;;;;2.63;2.42;;;24.90;99.90;;;25.31;78.30;101591.00;5050602;28;20411;-70
2023/09/10 02:00:54;;;;;;;1.85;1.83;;;24.90;99.90;;;25.29;78.24;101582.06;5049821;28;20053;-70
2023/09/10 02:03:22;;;;;;;1.92;1.83;;;24.90;99.90;;;25.20;78.10;101586.16;5043620;28;20487;-71
2023/09/10 02:05:51;;;;;;;2.53;2.42;;;24.90;99.90;;;24.91;79.35;101578.72;5049877;28;20050;-70
2023/09/10 02:08:19;;;;;;;2.65;2.53;;;24.60;99.90;;;24.93;79.58;101584.91;5050975;28;20577;-71
2023/09/10 02:10:47;;;;;;;1.70;1.70;;;24.60;99.90;;;24.84;79.79;101578.16;5038344;28;20053;-71
2023/09/10 02:13:17;;;;;;;4.65;4.28;;;24.50;99.90;;;24.89;79.66;101575.22;5069742;28;20508;-71
2023/09/10 02:15:45;;;;;;;2.37;2.27;;;24.50;99.90;;;24.90;79.96;101569.69;5040239;28;20104;-70
2023/09/10 02:18:17;;;;;;;3.80;3.55;;;24.50;99.90;;;24.98;79.55;101577.41;5051567;28;20059;-70
2023/09/10 02:20:45;;;;;;;2.47;2.38;;;24.50;99.90;;;24.70;80.43;101571.69;5049806;28;20048;-70
2023/09/10 02:23:13;;;;;;;2.17;2.08;;;24.30;99.90;;;24.80;80.37;101572.97;5044780;28;20536;-71
2023/09/10 02:25:42;;;;;;;6.47;4.72;;;24.40;99.90;;;24.73;80.63;101566.13;5039881;28;20092;-70
2023/09/10 02:28:10;;;;;;;4.60;4.15;;;24.30;99.90;;;24.82;80.02;101574.63;5050574;28;20056;-71
2023/09/10 02:30:40;;;;;;;2.60;2.47;;;24.40;99.90;;;24.36;81.81;101569.78;5039105;28;20132;-70
2023/09/10 02:33:09;;;;;;;1.83;1.80;;;24.10;99.90;;;24.43;82.21;101573.94;5054170;28;20048;-70
2023/09/10 02:35:37;;;;;;;2.35;2.25;;;24.10;99.90;;;24.35;82.14;101567.19;5038791;28;20717;-70
2023/09/10 02:38:06;;;;;;;2.13;2.03;;;24.00;99.90;;;24.22;83.26;101574.13;5050418;28;20069;-71
2023/09/10 02:40:34;;;;;;;2.00;1.90;;;23.80;99.90;;;24.16;83.10;101570.78;5039901;28;20059;-70
2023/09/10 02:43:03;;;;;;;2.05;1.95;;;23.80;99.90;;;23.87;84.05;101557.78;5054035;28;20075;-70
2023/09/10 02:45:31;;;;;;;2.03;1.92;;;23.60;99.90;;;23.95;84.60;101558.28;5038568;28;20056;-70
2023/09/10 02:48:01;;;;;;;2.33;2.22;;;23.60;99.90;;;23.93;84.57;101559.31;5052188;28;20091;-70
2023/09/10 02:50:29;;;;;;;2.22;2.13;;;23.50;99.90;;;24.06;84.33;101563.22;5046291;28;20091;-70
2023/09/10 02:52:57;;;;;;;3.65;3.42;;;23.60;99.90;;;23.90;84.43;101560.34;5044082;28;20052;-70
2023/09/10 02:55:26;;;;;;;3.38;3.17;;;23.50;99.90;;;23.84;84.58;101555.22;5052904;28;20044;-70
2023/09/10 02:57:54;;;;;;;2.88;2.67;;;23.50;99.90;;;23.85;84.85;101553.38;5036880;28;20437;-70
2023/09/10 03:00:25;;;;;;;3.72;3.50;;;23.50;99.90;;;23.79;85.08;101559.97;5045163;28;20042;-70
2023/09/10 03:02:54;;;;;;;2.78;2.67;;;23.40;99.90;;;23.78;85.02;101566.34;5043797;28;20498;-70
2023/09/10 03:05:25;;;;;;;2.88;2.67;;;23.40;99.90;;;23.62;85.83;101559.00;5052869;28;20057;-70
2023/09/10 03:07:55;;;;;;;4.80;4.38;;;23.20;99.90;;;23.68;85.51;101569.53;5036834;28;20490;-70
2023/09/10 03:10:24;;;;;;;4.65;3.83;;;23.30;99.90;;;23.43;86.38;101553.59;5068379;28;20049;-70
2023/09/10 03:12:52;;;;;;;4.50;4.20;;;23.10;99.90;;;23.50;86.46;101554.22;5048756;28;20053;-70
2023/09/10 03:15:21;;;;;;;4.90;3.78;;;23.10;99.90;;;23.57;86.25;101556.56;5047908;28;20057;-71
2023/09/10 03:17:49;;;;;;;3.97;3.70;;;23.10;99.90;;;23.48;86.73;101548.84;5054204;28;20487;-70
2023/09/10 03:20:18;;;;;;;4.53;4.13;;;23.10;99.90;;;23.43;87.03;101542.81;5052009;28;20082;-70
2023/09/10 03:22:49;;;;;;;4.25;3.85;;;23.00;99.90;;;23.38;87.26;101542.16;5048721;28;20053;-70
2023/09/10 03:25:18;;;;;;;4.60;2.95;;;23.00;99.90;;;23.28;87.64;101546.19;5048248;28;20060;-70
2023/09/10 03:27:46;;;;;;;3.03;2.83;;;22.90;99.90;;;23.22;88.37;101544.66;5038266;28;20072;-70
2023/09/10 03:30:15;;;;;;;2.90;2.70;;;22.80;99.90;;;23.35;88.09;101542.28;5048559;28;20060;-70
2023/09/10 03:32:44;;;;;;;4.40;4.10;;;22.90;99.90;;;23.35;87.72;101539.56;5046193;28;20052;-70
2023/09/10 03:35:12;;;;;;;2.20;2.10;;;22.90;99.90;;;23.34;87.84;101539.66;5065764;28;20513;-70
2023/09/10 03:37:41;;;;;;;1.95;1.85;;;22.90;99.90;;;23.42;87.58;101532.06;5055185;28;20136;-70
2023/09/10 03:40:12;;;;;;;2.38;2.28;;;23.00;99.90;;;23.41;87.38;101533.91;5053023;28;20397;-70
2023/09/10 03:42:40;;;;;;;4.10;3.88;;;23.00;99.90;;;23.36;87.43;101540.47;5037755;28;20045;-70
2023/09/10 03:45:10;;;;;;;5.40;4.88;;;23.00;99.90;;;23.18;88.37;101534.06;5049271;28;20053;-70
2023/09/10 03:47:38;;;;;;;4.10;3.67;;;22.80;99.90;;;23.28;88.35;101536.28;5055836;28;20049;-70
2023/09/10 03:50:08;;;;;;;7.22;4.25;;;22.90;99.90;;;23.06;89.09;101538.19;5052936;28;20037;-70
2023/09/10 03:52:36;;;;;;;4.93;4.18;;;22.70;99.90;;;22.96;89.68;101530.56;5048314;28;20152;-70
2023/09/10 03:55:06;;;;;;;7.93;6.43;;;22.60;99.90;;;22.99;89.66;101538.53;5035344;28;20045;-70
2023/09/10 03:57:36;;;;;;;2.95;2.85;;;22.60;99.90;;;22.98;89.80;101536.75;5044240;28;20037;-70
2023/09/10 04:00:06;;;;;;;2.22;2.13;;;22.60;99.90;;;23.02;89.84;101539.28;5043407;28;20048;-71
2023/09/10 04:02:39;;;;;;;3.58;3.38;;;22.60;99.90;;;23.22;89.35;101541.06;5050878;28;20049;-70
2023/09/10 04:05:10;;;;;;;2.53;2.42;;;22.70;99.90;;;23.17;89.15;101538.56;5053299;28;20151;-70
2023/09/10 04:07:39;;;;;;;2.85;2.72;;;22.80;99.90;;;23.20;89.22;101533.03;5052524;28;20430;-70
2023/09/10 04:10:09;;;;;;;6.13;5.50;;;22.80;99.90;;;23.21;89.04;101540.19;5038240;28;20815;-70
2023/09/10 04:12:38;;;;;;;2.80;2.67;;;22.80;99.90;;;23.29;88.63;101545.22;5048560;28;20460;-70
2023/09/10 04:15:08;;;;;;;2.73;2.63;;;22.90;99.90;;;23.37;88.38;101543.09;5042960;28;20382;-71
2023/09/10 04:17:36;;;;;;;2.93;2.73;;;23.00;99.90;;;23.49;87.75;101537.13;5045516;28;20455;-70
2023/09/10 04:20:08;;;;;;;3.97;3.75;;;23.10;99.90;;;23.50;87.44;101543.41;5067171;28;20291;-70
2023/09/10 04:22:36;;;;;;;2.78;2.58;;;23.20;99.90;;;23.42;87.74;101537.47;5068477;28;20055;-70
2023/09/10 04:25:06;;;;;;;2.90;2.72;;;23.10;99.90;;;23.46;87.71;101539.09;5043816;28;20505;-70
2023/09/10 04:27:34;;;;;;;5.70;5.20;;;23.10;99.90;;;23.28;88.19;101540.78;5052011;28;20050;-70
2023/09/10 04:30:06;;;;;;;5.82;5.38;;;23.00;99.90;;;23.18;88.74;101536.75;5052470;28;20545;-70
2023/09/10 04:32:34;;;;;;;2.78;2.65;;;22.80;99.90;;;23.14;89.12;101538.72;5036223;28;20064;-71
2023/09/10 04:35:04;;;;;;;4.15;3.72;;;22.80;99.90;;;23.09;89.65;101539.88;5054988;28;20135;-70
2023/09/10 04:37:34;;;;;;;3.92;3.63;;;22.70;99.90;;;23.09;89.68;101534.47;5071602;28;20053;-70
2023/09/10 04:40:05;;;;;;;3.08;2.88;;;22.70;99.90;;;22.97;89.85;101521.53;5052500;28;20144;-70
2023/09/10 04:42:34;;;;;;;4.38;4.07;;;22.70;99.90;;;23.06;89.88;101540.00;5066352;28;20057;-70
2023/09/10 04:45:06;;;;;;;3.35;3.05;;;22.70;99.90;;;23.15;89.51;101539.59;5044532;28;20107;-70
2023/09/10 04:47:34;;;;;;;5.60;4.95;;;22.80;99.90;;;22.91;90.20;101538.88;5051648;28;20050;-70
2023/09/10 04:50:04;;;;;;;4.28;3.83;;;22.60;99.90;;;22.79;91.25;101531.31;5050853;28;20128;-70
2023/09/10 04:52:33;;;;;;;5.05;3.88;;;22.40;99.90;;;22.77;91.40;101540.41;5041214;28;20163;-70
2023/09/10 04:55:02;;;;;;;4.43;3.97;;;22.40;99.90;;;22.81;91.91;101542.03;5071366;28;20041;-70
2023/09/10 04:57:31;;;;;;;2.90;2.75;;;22.40;99.90;;;22.85;91.59;101541.84;5041122;28;20060;-71
2023/09/10 04:59:59;;;;;;;3.75;3.53;;;22.50;99.90;;;22.74;91.85;101529.78;5051500;28;20037;-70
2023/09/10 05:02:29;;;;;;;2.38;2.28;;;22.40;99.90;;;22.77;92.14;101537.72;5042045;28;20143;-71
2023/09/10 05:04:57;;;;;;;4.00;3.55;;;22.30;99.90;;;22.74;92.37;101544.16;5050555;28;20072;-70
2023/09/10 05:07:25;;;;;;;3.85;3.55;;;22.30;99.90;;;22.77;92.06;101537.72;5050774;28;20173;-71
2023/09/10 05:09:55;;;;;;;4.97;4.60;;;22.30;99.90;;;22.66;92.76;101538.22;5053894;28;20115;-70
2023/09/10 05:12:24;;;;;;;3.45;3.28;;;22.30;99.90;;;22.59;92.95;101531.31;5050345;28;20061;-70
2023/09/10 05:14:52;;;;;;;3.70;3.50;;;22.20;99.90;;;22.74;92.75;101540.56;5047345;28;20079;-70
2023/09/10 05:17:20;;;;;;;23.20;4.00;;;22.30;99.90;;;22.82;92.01;101544.66;5039848;28;20103;-70
2023/09/10 05:19:50;;;;;;;2.83;2.70;;;22.40;99.90;;;22.75;92.40;101545.00;5034468;28;20056;-70
2023/09/10 05:22:20;;;;;;;4.63;4.32;;;22.30;99.90;;;22.69;92.43;101540.75;5054312;28;20041;-70
2023/09/10 05:24:48;;;;;;;5.40;4.30;;;22.30;99.90;;;22.67;92.45;101541.75;5070245;28;20494;-70
2023/09/10 05:27:17;;;;;;;8.18;5.13;;;22.30;99.90;;;22.57;93.16;101540.44;5051043;28;20049;-70
2023/09/10 05:29:45;;;;;;;2.53;2.42;;;22.20;99.90;;;22.39;94.56;101537.53;5050809;28;20076;-70
2023/09/10 05:32:14;;;;;;;5.35;4.70;;;22.00;99.90;;;22.38;94.51;101543.88;5043666;28;20490;-70
2023/09/10 05:34:42;;;;;;;3.10;2.90;;;22.00;99.90;;;22.51;94.26;101535.25;5050539;28;20103;-70
2023/09/10 05:37:13;;;;;;;4.43;4.13;;;22.10;99.90;;;22.56;93.99;101542.22;5049974;28;20072;-70
2023/09/10 05:39:42;;;;;;;4.35;3.95;;;22.10;99.90;;;22.60;93.79;101540.28;5038786;28;20079;-70
2023/09/10 05:42:10;;;;;;;3.83;3.63;;;22.10;99.90;;;22.83;92.96;101543.72;5053941;28;20083;-70
2023/09/10 05:44:38;;;;;;;3.75;3.45;;;22.40;99.90;;;22.98;92.09;101551.16;5050506;28;20048;-70
2023/09/10 05:47:07;;;;;;;3.67;3.35;;;22.60;99.90;;;23.13;91.39;101555.00;5050077;28;20052;-70
2023/09/10 05:49:37;;;;;;;4.90;4.25;;;22.70;99.90;;;23.13;90.97;101555.00;5040168;28;20498;-70
2023/09/10 05:52:06;;;;;;;2.60;2.50;;;22.70;99.90;;;23.13;90.94;101555.00;5050262;28;20053;-70
2023/09/10 05:54:35;;;;;;;2.55;2.45;;;22.70;99.90;;;23.29;90.81;101553.31;5048782;28;20095;-70
2023/09/10 05:57:04;;;;;;;3.73;3.53;;;22.80;99.90;;;23.51;89.31;101559.53;5038465;28;20049;-71
2023/09/10 05:59:33;;;;;;;3.65;3.45;;;23.00;99.90;;;23.27;89.73;101555.22;5048540;28;20049;-70
2023/09/10 06:02:01;;;;;;;3.45;3.25;;;22.90;99.90;;;23.25;90.52;101562.50;5043315;28;20041;-70
2023/09/10 06:04:32;;;;;;;4.68;4.13;;;22.80;99.90;;;23.38;89.92;101558.34;5049350;28;20056;-70
2023/09/10 06:07:03;;;;;;;;;;;22.80;99.90;;;23.40;89.51;101559.16;5053645;28;20041;-70
2023/09/10 06:09:33;;;;;;;3.85;3.58;;;22.90;99.90;;;23.44;88.97;101560.75;5061656;28;19921;-70
2023/09/10 06:12:03;;;;;;;7.50;4.13;;;23.00;99.90;;;23.49;88.64;101564.13;5061021;28;20057;-70
2023/09/10 06:14:34;;;;;;;6.40;5.85;;;23.00;99.90;;;23.68;88.25;101575.81;5053168;28;20045;-71
2023/09/10 06:17:03;;;;;;;8.32;4.82;;;23.10;99.90;;;23.62;88.57;101576.09;5034057;28;20080;-70
2023/09/10 06:19:32;;;;;;;7.22;4.88;;;23.10;99.90;;;23.63;88.26;101575.19;5041814;28;20140;-70
2023/09/10 06:22:00;;;;;;;2.63;2.53;;;23.20;99.90;;;23.83;88.18;101577.78;5054273;28;20482;-71
2023/09/10 06:24:29;;;;;;;2.13;2.03;;;23.30;99.90;;;24.23;86.32;101578.59;5050187;28;20091;-70
2023/09/10 06:26:57;;;;;;;2.38;2.28;;;23.70;99.90;;;24.47;84.73;101583.66;5049491;28;20053;-70
2023/09/10 06:29:27;;;;;;;2.40;2.30;;;24.00;99.90;;;24.73;83.99;101588.66;5043249;28;20048;-70
2023/09/10 06:31:55;;;;;;;2.23;2.13;;;24.30;99.90;;;24.71;83.31;101590.53;5049620;28;20053;-70
2023/09/10 06:34:24;;;;;;;4.35;3.88;;;24.30;99.90;;;24.73;83.33;101594.06;5050359;28;20366;-70
2023/09/10 06:36:52;;;;;;;2.63;2.53;;;24.30;99.90;;;24.62;84.03;101590.13;5038410;28;20092;-71
2023/09/10 06:39:21;;;;;;;2.55;2.45;;;24.10;99.90;;;24.82;83.58;101600.81;5049442;28;20037;-71
2023/09/10 06:41:54;;;;;;;3.10;2.97;;;24.30;99.90;;;25.24;82.09;101595.00;5046305;28;20048;-71
2023/09/10 06:44:27;;;;;;;4.35;3.90;;;24.70;99.90;;;25.33;81.39;101599.91;5051933;28;20042;-70
2023/09/10 06:46:55;;;;;;;3.33;2.93;;;24.90;99.90;;;25.36;81.30;101603.34;5046906;28;20482;-70
2023/09/10 06:49:23;;;;;;;4.63;4.28;;;24.80;99.90;;;25.28;81.05;101602.88;5044840;28;20287;-70
2023/09/10 06:51:52;;;;;;;2.95;2.75;;;24.80;99.90;;;25.24;81.96;101598.56;5038726;28;20045;-70
2023/09/10 06:54:20;;;;;;;2.65;2.45;;;24.70;99.90;;;25.63;81.17;101607.28;5049717;28;20095;-71
2023/09/10 06:56:48;;;;;;;1.48;1.48;;;25.10;99.90;;;25.88;80.60;101606.78;5040513;28;20132;-71
2023/09/10 06:59:17;;;;;;;3.47;3.28;;;25.30;99.90;;;25.97;78.70;101602.69;5042431;28;20049;-70
2023/09/10 07:01:47;;;;;;;4.20;3.90;;;25.50;99.90;;;25.87;78.78;101603.22;5048888;28;20124;-70
2023/09/10 07:04:19;;;;;;;5.78;3.80;;;25.50;99.90;;;25.39;82.72;101600.50;5036582;28;20490;-71
2023/09/10 07:06:51;;;;;;;2.13;2.03;;;25.00;99.90;;;25.60;81.74;101612.88;5044947;28;20103;-70
2023/09/10 07:09:22;;;;;;;2.95;2.85;;;25.10;99.90;;;25.66;81.33;101588.16;5045716;28;20045;-70
2023/09/10 07:11:51;;;;;;;3.47;3.17;;;25.20;99.90;;;25.96;80.79;101622.66;5036235;28;20065;-70
2023/09/10 07:14:20;;;;;;;7.00;6.38;;;25.40;99.90;;;25.58;82.35;101593.13;5047351;28;20083;-70
2023/09/10 07:16:50;;;;;;;3.47;3.28;;;25.20;99.90;;;25.87;83.20;101602.34;5042397;28;20120;-71
2023/09/10 07:19:19;;;;;;;4.45;4.03;;;25.30;99.90;;;26.17;81.61;101600.63;5039046;28;20125;-71
2023/09/10 07:21:47;;;;;;;5.47;4.60;;;25.60;99.90;;;26.26;80.94;101607.38;5049492;28;20072;-70
2023/09/10 07:24:15;;;;;;;2.72;2.63;;;25.70;99.90;;;26.05;81.58;101606.75;5038734;28;20053;-70
2023/09/10 07:26:45;;;;;;;1.67;1.67;;;25.50;99.90;;;26.41;80.94;101615.50;5042978;28;20045;-71
2023/09/10 07:29:15;;;;;;;6.30;5.18;;;25.80;99.90;;;26.33;79.16;101617.78;5047523;28;20498;-71
2023/09/10 07:31:44;;;;;;;4.80;4.18;;;25.90;99.90;;;26.56;79.15;101616.44;5036614;28;20049;-71
2023/09/10 07:34:14;;;;;;;8.25;5.18;;;26.10;99.90;;;26.50;79.33;101614.97;5045918;28;20069;-71
2023/09/10 07:36:44;;;;;;;4.20;3.90;;;26.00;99.90;;;26.26;78.52;101616.41;5043802;28;20508;-71
2023/09/10 07:39:12;;;;;;;6.05;4.05;;;25.80;99.90;;;25.89;81.35;101612.16;5037428;28;20076;-71
2023/09/10 07:41:41;;;;;;;7.32;6.72;;;25.50;99.90;;;25.80;81.44;101619.94;5048964;28;20096;-71
2023/09/10 07:44:09;;;;;;;8.60;6.93;;;25.30;99.90;;;25.85;81.77;101621.41;5040034;28;20052;-71
2023/09/10 07:46:37;;;;;;;4.15;3.85;;;25.30;99.90;;;25.91;81.98;101618.38;5041258;28;20485;-71
2023/09/10 07:49:06;;;;;;;3.92;3.60;;;25.40;99.90;;;26.49;80.87;101624.09;5048030;28;20375;-71
2023/09/10 07:51:35;;;;;;;12.65;7.00;;;25.80;99.90;;;26.14;80.58;101617.09;5051253;28;20049;-71
2023/09/10 07:54:04;;;;;;;16.40;5.93;;;25.70;99.90;;;26.51;79.81;101626.69;5045001;28;20073;-71
2023/09/10 07:56:32;;;;;;;4.47;4.05;;;26.00;99.90;;;26.45;80.00;101624.34;5044764;28;20398;-71
2023/09/10 07:59:00;;;;;;;2.20;2.10;;;26.00;99.90;;;26.82;78.39;101625.78;5036286;28;20049;-71
2023/09/10 08:01:29;;;;;;;10.30;6.70;;;26.30;99.90;;;26.64;77.68;101634.03;5048347;28;20410;-71
2023/09/10 08:03:57;;;;;;;10.98;6.82;;;26.20;99.90;;;26.58;78.17;101638.94;5040739;28;20052;-71
2023/09/10 08:06:26;;;;;;;11.88;7.10;;;26.10;99.90;;;26.51;78.42;101632.13;5040102;28;20056;-71
2023/09/10 08:08:56;;;;;;;11.63;5.28;;;26.10;99.90;;;26.63;78.75;101632.31;5048610;28;20149;-71
2023/09/10 08:11:24;;;;;;;4.47;4.07;;;26.10;99.90;;;26.82;78.13;101628.50;5036888;28;20596;-71
2023/09/10 08:13:53;;;;;;;9.77;3.97;;;26.30;99.90;;;27.24;77.05;101628.63;5043042;28;20088;-71
2023/09/10 08:16:21;;;;;;;4.05;3.75;;;26.70;99.90;;;27.49;74.61;101631.59;5044433;28;20063;-71
2023/09/10 08:18:49;;;;;;;3.45;3.22;;;27.00;99.90;;;27.36;75.23;101639.66;5036006;28;20048;-71
2023/09/10 08:21:18;;;;;;;10.52;6.18;;;27.00;99.90;;;27.49;75.55;101632.47;5046924;28;20049;-71
2023/09/10 08:23:47;;;;;;;2.85;2.67;;;27.10;99.90;;;27.82;74.77;101636.75;5041329;28;20045;-71
2023/09/10 08:26:17;;;;;;;18.83;8.50;;;27.30;99.90;;;27.37;75.30;101630.53;5038582;28;20052;-71
2023/09/10 08:28:45;;;;;;;21.13;8.48;;;27.10;99.90;;;27.07;76.09;101626.06;5048779;28;20045;-71
2023/09/10 08:31:14;;;;;;;4.60;4.13;;;26.70;99.90;;;27.13;77.25;101621.13;5037602;28;20049;-71
2023/09/10 08:33:42;;;;;;;3.28;3.08;;;26.60;99.90;;;27.22;76.72;101620.56;5042397;28;20041;-72
2023/09/10 08:36:10;;;;;;;20.25;4.47;;;26.70;99.90;;;27.37;77.36;101621.50;5046175;28;20466;-71
2023/09/10 08:38:39;;;;;;;10.98;8.05;;;26.80;99.90;;;27.49;74.03;101623.44;5035518;28;20053;-71
2023/09/10 08:41:19;;;;;;;12.40;6.10;;;27.00;99.90;;;27.40;74.35;101619.47;5046271;28;20045;-71
2023/09/10 08:43:58;;;;;;;1.38;1.38;;;27.00;99.90;;;27.74;75.22;101611.91;5044199;28;20436;-71
2023/09/10 08:46:31;;;;;;;4.45;3.35;;;27.20;99.90;;;28.21;73.26;101612.44;5035838;28;20766;-71
2023/09/10 08:49:01;;;;;;;3.00;2.80;;;27.70;99.90;;;28.32;74.08;101626.25;5046267;28;20129;-71
2023/09/10 08:51:31;;;;;;;10.90;3.40;;;27.80;99.90;;;28.65;71.51;101624.00;5042776;28;20410;-71
2023/09/10 08:54:02;;;;;;;1.93;1.83;;;28.20;99.90;;;28.76;71.28;101620.56;5037516;28;20095;-71
2023/09/10 08:56:32;;;;;;;5.72;4.47;;;28.30;99.90;;;28.69;70.49;101619.25;5048047;28;20090;-71
2023/09/10 08:59:04;;;;;;;7.50;2.92;;;28.30;99.90;;;29.04;70.10;101632.19;5039403;28;20389;-71
2023/09/10 09:01:33;;;;;;;5.53;4.30;;;28.50;99.90;;;28.97;70.41;101628.13;5044019;28;20068;-71
2023/09/10 09:04:03;;;;;;;2.78;2.63;;;28.50;99.90;;;29.16;69.02;101627.75;5051893;28;20120;-71
2023/09/10 09:06:34;;;;;;;2.65;2.55;;;28.70;99.90;;;29.41;66.66;101630.50;5039947;28;20132;-71
2023/09/10 09:09:05;;;;;;;1.33;1.33;;;29.00;99.90;;;30.00;65.58;101648.94;5046835;28;20048;-71
2023/09/10 09:11:36;;;;;;;1.98;1.88;;;29.50;99.90;;;29.91;64.49;101629.63;5049220;28;20513;-71
2023/09/10 09:14:09;;;;;;;1.20;1.20;;;29.60;99.90;;;30.16;64.15;101630.44;5038769;28;20057;-71
2023/09/10 09:16:40;;;;;;;5.05;4.75;;;29.80;99.90;;;30.49;62.74;101638.03;5048527;28;20155;-71
2023/09/10 09:19:12;;;;;;;1.00;1.00;;;30.10;99.90;;;30.45;62.90;101633.78;5045733;28;20103;-71
2023/09/10 09:21:41;;;;;;;2.20;2.00;;;30.20;99.90;;;30.69;61.02;101640.13;5039651;28;20092;-72
2023/09/10 09:24:12;;;;;;;1.08;1.08;;;30.40;99.90;;;30.96;60.03;101643.50;5069995;28;20045;-71
2023/09/10 09:26:41;;;;;;;1.10;1.10;;;30.60;99.90;;;31.01;60.53;101635.81;5047208;28;20128;-71
2023/09/10 09:29:10;;;;;;;1.27;1.27;;;30.80;99.90;;;31.28;59.61;101634.66;5047027;28;20047;-72
2023/09/10 09:31:39;;;;;;;1.08;1.08;;;31.00;99.90;;;30.91;59.38;101628.47;5038877;28;20151;-72
2023/09/10 09:34:07;;;;;;;1.67;1.65;;;30.70;99.90;;;30.94;60.16;101625.47;5039118;28;20457;-72
2023/09/10 09:36:39;;;;;;;2.90;2.67;;;30.60;99.90;;;31.47;59.85;101635.00;5046409;28;20487;-72
2023/09/10 09:39:08;;;;;;;1.73;1.63;;;31.10;99.90;;;31.51;58.44;101633.75;5048058;28;20067;-71
2023/09/10 09:41:37;;;;;;;1.85;1.63;;;31.10;99.90;;;31.60;58.49;101635.75;5038659;28;20128;-72
2023/09/10 09:44:08;;;;;;;3.75;2.38;;;31.30;99.90;;;31.45;58.61;101635.13;5050113;28;20061;-72
2023/09/10 09:46:36;;;;;;;2.47;2.35;;;31.10;99.90;;;31.65;57.83;101630.78;5044365;28;20494;-72
2023/09/10 09:49:08;;;;;;;1.75;1.65;;;31.30;99.90;;;31.57;58.44;101627.78;5040698;28;20048;-72
2023/09/10 09:51:39;;;;;;;1.90;1.80;;;31.30;99.90;;;31.34;58.77;101631.44;5050979;28;20553;-71
2023/09/10 09:54:08;;;;;;;5.28;3.22;;;31.00;99.90;;;31.18;58.80;101630.91;5041292;28;20056;-71
2023/09/10 09:56:37;;;;;;;2.63;2.33;;;30.90;99.90;;;31.18;59.59;101619.97;5043880;28;20159;-71
2023/09/10 09:59:07;;;;;;;2.10;1.95;;;30.90;99.90;;;31.43;59.00;101628.91;5049435;28;20083;-72
2023/09/10 10:01:36;;;;;;;2.45;2.25;;;31.10;99.90;;;30.98;59.23;101616.94;5038197;28;20680;-72
2023/09/10 10:04:05;;;;;;;1.00;1.00;;;30.70;99.90;;;31.19;60.13;101619.84;5047114;28;20124;-71
2023/09/10 10:06:34;;;;;;;1.10;1.10;;;30.70;99.90;;;31.47;58.60;101610.38;5046211;28;20044;-71
2023/09/10 10:09:18;;;;;;;3.20;2.53;;;31.10;99.90;;;31.70;57.24;101617.59;5038020;28;20399;-71
2023/09/10 10:11:47;;;;;;;1.10;1.10;;;31.40;99.90;;;31.77;58.12;101618.84;5048753;28;20076;-71
2023/09/10 10:14:18;;;;;;;1.00;1.00;;;31.40;99.90;;;31.82;56.42;101620.19;5044490;28;20048;-71
2023/09/10 10:16:47;;;;;;;1.15;1.15;;;31.60;99.90;;;31.90;57.68;101623.19;5039580;28;20123;-71
2023/09/10 10:19:16;;;;;;;1.02;1.02;;;31.60;99.90;;;32.32;53.28;101621.56;5048962;28;20044;-72
2023/09/10 10:21:46;;;;;;;2.85;2.65;;;32.00;99.90;;;32.86;53.17;101624.28;5040153;28;20076;-71